createdAt,value
2023-09-23T00:01:27.031Z,3.47
2023-09-23T00:03:53.973Z,3.20
2023-09-23T00:06:23.722Z,2.50
2023-09-23T00:08:50.318Z,3.00
2023-09-23T00:11:16.881Z,3.03
2023-09-23T00:13:43.947Z,3.38
2023-09-23T00:16:15.876Z,3.58
2023-09-23T00:18:47.026Z,3.50
2023-09-23T00:21:14.224Z,3.08
2023-09-23T00:23:41.382Z,3.10
2023-09-23T00:26:08.619Z,2.72
2023-09-23T00:28:35.532Z,3.03
2023-09-23T00:31:13.121Z,3.08
2023-09-23T00:33:40.352Z,3.13
2023-09-23T00:36:08.651Z,3.10
2023-09-23T00:38:35.745Z,3.50
2023-09-23T00:41:04.881Z,3.17
2023-09-23T00:43:33.809Z,2.60
2023-09-23T00:46:01.809Z,3.15
2023-09-23T00:48:32.256Z,2.90
2023-09-23T00:50:58.851Z,3.13
2023-09-23T00:53:26.830Z,3.28
2023-09-23T00:55:54.038Z,3.17
2023-09-23T00:58:23.046Z,3.55
2023-09-23T01:00:50.546Z,2.90
2023-09-23T01:03:17.412Z,2.90
2023-09-23T01:05:48.098Z,2.72
2023-09-23T01:08:31.172Z,2.90
2023-09-23T01:10:57.785Z,3.20
2023-09-23T01:13:25.898Z,3.08
2023-09-23T01:15:52.865Z,3.15
2023-09-23T01:18:19.423Z,3.38
2023-09-23T01:20:52.577Z,3.55
2023-09-23T01:23:19.211Z,3.22
2023-09-23T01:25:45.778Z,3.50
2023-09-23T01:28:12.555Z,3.20
2023-09-23T01:30:41.597Z,3.25
2023-09-23T01:33:10.036Z,2.65
2023-09-23T01:35:36.998Z,2.90
2023-09-23T01:38:07.459Z,3.25
2023-09-23T01:40:36.200Z,3.20
2023-09-23T01:43:03.317Z,3.28
2023-09-23T01:45:30.613Z,2.70
2023-09-23T01:47:58.444Z,2.80
2023-09-23T01:50:27.263Z,3.55
2023-09-23T01:52:57.222Z,3.22
2023-09-23T01:55:23.797Z,2.83
2023-09-23T01:57:50.338Z,3.80
2023-09-23T02:00:25.631Z,3.22
2023-09-23T02:02:55.422Z,3.35
2023-09-23T02:05:23.450Z,3.03
2023-09-23T02:07:51.446Z,3.10
2023-09-23T02:10:18.899Z,2.92
2023-09-23T02:12:46.048Z,2.83
2023-09-23T02:15:18.449Z,3.13
2023-09-23T02:17:48.865Z,3.25
2023-09-23T02:20:24.229Z,2.67
2023-09-23T02:22:56.368Z,3.85
2023-09-23T02:25:26.717Z,3.50
2023-09-23T02:27:54.119Z,3.20
2023-09-23T02:30:20.831Z,2.97
2023-09-23T02:32:48.288Z,3.50
2023-09-23T02:35:16.911Z,3.53
2023-09-23T02:37:49.472Z,3.38
2023-09-23T02:40:16.473Z,3.25
2023-09-23T02:42:44.874Z,3.97
2023-09-23T02:45:13.580Z,3.58
2023-09-23T02:47:41.385Z,3.28
2023-09-23T02:50:11.013Z,3.60
2023-09-23T02:52:40.124Z,3.65
2023-09-23T02:55:08.788Z,3.88
2023-09-23T02:57:38.528Z,3.58
2023-09-23T03:02:46.938Z,3.58
2023-09-23T03:05:18.127Z,3.08
2023-09-23T03:07:49.312Z,3.95
2023-09-23T03:10:20.055Z,4.00
2023-09-23T03:12:58.119Z,4.07
2023-09-23T03:15:34.855Z,3.75
2023-09-23T03:18:02.180Z,4.15
2023-09-23T03:20:28.962Z,3.28
2023-09-23T03:22:55.540Z,4.00
2023-09-23T03:25:22.162Z,4.05
2023-09-23T03:27:50.031Z,4.90
2023-09-23T03:30:18.164Z,3.78
2023-09-23T03:32:46.719Z,4.35
2023-09-23T03:35:25.098Z,4.47
2023-09-23T03:37:52.013Z,3.88
2023-09-23T03:40:25.638Z,4.40
2023-09-23T03:42:52.381Z,3.63
2023-09-23T03:45:19.177Z,4.35
2023-09-23T03:47:47.689Z,4.68
2023-09-23T03:50:15.631Z,4.82
2023-09-23T03:52:43.394Z,5.43
2023-09-23T03:55:13.190Z,5.30
2023-09-23T04:00:16.339Z,4.40
2023-09-23T04:02:44.358Z,4.80
2023-09-23T04:05:11.102Z,4.57
2023-09-23T04:07:41.362Z,4.63
2023-09-23T04:10:10.290Z,4.70
2023-09-23T04:12:38.126Z,4.68
2023-09-23T04:15:06.286Z,4.32
2023-09-23T04:17:32.787Z,4.40
2023-09-23T04:19:59.310Z,4.43
2023-09-23T04:22:25.876Z,3.72
2023-09-23T04:24:52.375Z,3.78
2023-09-23T04:27:18.864Z,4.03
2023-09-23T04:29:45.366Z,4.15
2023-09-23T04:32:14.230Z,4.60
2023-09-23T04:34:41.017Z,4.22
2023-09-23T04:37:07.586Z,4.20
2023-09-23T04:39:34.125Z,4.45
2023-09-23T04:42:01.792Z,4.38
2023-09-23T04:44:28.350Z,4.10
2023-09-23T04:46:55.049Z,4.25
2023-09-23T04:49:22.678Z,4.03
2023-09-23T04:51:49.262Z,4.03
2023-09-23T04:54:15.847Z,4.32
2023-09-23T04:56:43.060Z,4.93
2023-09-23T04:59:09.589Z,4.15
2023-09-23T05:01:36.058Z,4.03
2023-09-23T05:04:03.651Z,3.92
2023-09-23T05:06:30.245Z,3.45
2023-09-23T05:08:56.782Z,4.03
2023-09-23T05:11:24.693Z,3.35
2023-09-23T05:13:51.393Z,4.35
2023-09-23T05:16:18.262Z,3.58
2023-09-23T05:18:45.002Z,3.83
2023-09-23T05:21:11.711Z,3.97
2023-09-23T05:23:38.463Z,3.78
2023-09-23T05:26:06.136Z,3.85
2023-09-23T05:28:32.735Z,4.10
2023-09-23T05:31:00.097Z,3.75
2023-09-23T05:33:26.803Z,2.95
2023-09-23T05:35:53.383Z,3.55
2023-09-23T05:38:20.810Z,3.90
2023-09-23T05:40:47.430Z,4.20
2023-09-23T05:43:13.934Z,4.20
2023-09-23T05:45:40.654Z,4.03
2023-09-23T05:48:07.381Z,3.90
2023-09-23T05:50:34.033Z,3.78
2023-09-23T05:53:00.585Z,3.17
2023-09-23T05:55:30.035Z,3.80
2023-09-23T05:57:56.545Z,3.83
2023-09-23T06:00:23.226Z,3.83
2023-09-23T06:02:49.905Z,4.35
2023-09-23T06:05:16.783Z,4.28
2023-09-23T06:07:43.877Z,3.47
2023-09-23T06:10:12.335Z,4.32
2023-09-23T06:12:39.846Z,4.90
2023-09-23T06:15:06.940Z,4.75
2023-09-23T06:17:33.843Z,4.55
2023-09-23T06:20:02.150Z,4.78
2023-09-23T06:22:29.053Z,4.22
2023-09-23T06:24:56.122Z,4.72
2023-09-23T06:27:22.959Z,4.72
2023-09-23T06:29:49.467Z,4.60
2023-09-23T06:32:16.076Z,4.32
2023-09-23T06:34:42.628Z,4.50
2023-09-23T06:37:09.133Z,4.25
2023-09-23T06:39:35.747Z,4.43
2023-09-23T06:42:02.315Z,5.00
2023-09-23T06:44:29.042Z,4.05
2023-09-23T06:46:55.700Z,4.85
2023-09-23T06:49:22.416Z,4.38
2023-09-23T06:51:49.024Z,4.28
2023-09-23T06:54:15.633Z,5.00
2023-09-23T06:56:42.151Z,4.03
2023-09-23T06:59:09.175Z,4.68
2023-09-23T07:01:36.204Z,5.15
2023-09-23T07:04:03.565Z,4.70
2023-09-23T07:06:30.167Z,4.50
2023-09-23T07:08:56.917Z,4.38
2023-09-23T07:11:24.804Z,4.72
2023-09-23T07:13:51.664Z,4.40
2023-09-23T07:16:18.424Z,4.63
2023-09-23T07:18:45.754Z,4.82
2023-09-23T07:21:13.107Z,4.10
2023-09-23T07:23:39.942Z,4.65
2023-09-23T07:26:07.090Z,3.80
2023-09-23T07:28:34.067Z,4.53
2023-09-23T07:31:00.865Z,4.50
2023-09-23T07:33:27.821Z,3.65
2023-09-23T07:35:57.133Z,3.72
2023-09-23T07:38:23.677Z,3.83
2023-09-23T07:40:50.630Z,3.45
2023-09-23T07:43:17.209Z,3.63
2023-09-23T07:45:43.815Z,3.90
2023-09-23T07:48:10.651Z,4.40
2023-09-23T07:50:37.316Z,4.55
2023-09-23T07:53:04.059Z,4.75
2023-09-23T07:55:31.386Z,4.43
2023-09-23T07:57:58.148Z,4.43
2023-09-23T08:00:27.232Z,4.18
2023-09-23T08:02:55.092Z,4.18
2023-09-23T08:05:25.455Z,3.90
2023-09-23T08:07:52.604Z,4.53
2023-09-23T08:10:19.415Z,4.80
2023-09-23T08:12:46.085Z,4.47
2023-09-23T08:15:12.882Z,4.53
2023-09-23T08:17:40.799Z,4.95
2023-09-23T08:20:37.774Z,4.00
2023-09-23T08:23:04.965Z,3.33
2023-09-23T08:25:31.530Z,4.70
2023-09-23T08:27:58.194Z,4.55
2023-09-23T08:30:24.797Z,4.97
2023-09-23T08:32:51.677Z,4.65
2023-09-23T08:35:18.356Z,4.40
2023-09-23T08:37:47.299Z,4.95
2023-09-23T08:40:16.348Z,5.03
2023-09-23T08:42:42.938Z,4.68
2023-09-23T08:45:10.548Z,5.10
2023-09-23T08:47:38.612Z,5.68
2023-09-23T08:50:11.572Z,5.55
2023-09-23T08:52:38.972Z,6.10
2023-09-23T08:55:08.553Z,5.43
2023-09-23T08:57:35.263Z,5.15
2023-09-23T09:00:01.909Z,10.23
2023-09-23T09:02:30.671Z,6.32
2023-09-23T09:04:58.471Z,6.70
2023-09-23T09:07:36.239Z,6.85
2023-09-23T09:10:04.344Z,7.00
2023-09-23T09:12:34.594Z,7.10
2023-09-23T09:15:01.846Z,7.20
2023-09-23T09:17:28.591Z,6.60
2023-09-23T09:19:55.166Z,6.28
2023-09-23T09:22:21.712Z,7.40
2023-09-23T09:24:48.234Z,8.63
2023-09-23T09:27:15.585Z,7.50
2023-09-23T09:29:42.852Z,7.53
2023-09-23T09:32:11.457Z,7.18
2023-09-23T09:34:46.723Z,7.95
2023-09-23T09:37:19.477Z,6.70
2023-09-23T09:39:54.397Z,7.68
2023-09-23T09:42:32.016Z,7.53
2023-09-23T09:44:58.845Z,6.88
2023-09-23T09:47:25.594Z,8.00
2023-09-23T09:49:53.632Z,7.45
2023-09-23T09:52:23.102Z,5.53
2023-09-23T09:54:55.433Z,5.15
2023-09-23T09:57:30.308Z,5.00
2023-09-23T10:00:01.252Z,4.13
2023-09-23T10:02:29.384Z,4.35
2023-09-23T10:05:03.614Z,3.92
2023-09-23T10:07:50.027Z,3.05
2023-09-23T10:10:16.546Z,2.70
2023-09-23T10:12:49.998Z,2.78
2023-09-23T10:15:25.549Z,3.50
2023-09-23T10:20:24.771Z,2.83
2023-09-23T10:25:19.216Z,3.15
2023-09-23T10:28:01.710Z,3.10
2023-09-23T10:30:28.204Z,3.95
2023-09-23T10:32:54.740Z,3.80
2023-09-23T10:35:24.603Z,3.88
2023-09-23T10:37:51.165Z,3.85
2023-09-23T10:40:18.595Z,3.47
2023-09-23T10:42:47.893Z,3.97
2023-09-23T10:45:15.736Z,4.35
2023-09-23T10:47:45.190Z,4.18
2023-09-23T10:52:38.796Z,4.15
2023-09-23T10:55:06.771Z,4.68
2023-09-23T10:57:33.314Z,4.47
2023-09-23T11:00:00.552Z,4.60
2023-09-23T11:02:27.309Z,4.28
2023-09-23T11:04:55.612Z,4.88
2023-09-23T11:07:22.217Z,4.50
2023-09-23T11:09:48.765Z,4.63
2023-09-23T11:12:16.764Z,4.22
2023-09-23T11:14:47.174Z,3.90
2023-09-23T11:17:32.177Z,4.03
2023-09-23T11:20:00.296Z,4.18
2023-09-23T11:22:30.838Z,3.75
2023-09-23T11:24:58.979Z,4.32
2023-09-23T11:27:26.699Z,3.78
2023-09-23T11:29:53.806Z,3.95
2023-09-23T11:32:22.200Z,3.45
2023-09-23T11:34:50.018Z,3.35
2023-09-23T11:37:18.101Z,3.35
2023-09-23T11:39:44.886Z,2.88
2023-09-23T11:42:11.627Z,2.70
2023-09-23T11:44:38.176Z,3.40
2023-09-23T11:47:05.204Z,3.55
2023-09-23T11:49:31.710Z,4.22
2023-09-23T11:51:58.528Z,3.67
2023-09-23T11:54:25.462Z,3.63
2023-09-23T11:56:52.183Z,3.50
2023-09-23T11:59:21.708Z,3.83
2023-09-23T12:01:49.311Z,4.15
2023-09-23T12:04:15.881Z,4.22
2023-09-23T12:06:42.439Z,4.25
2023-09-23T12:09:11.052Z,4.50
2023-09-23T12:11:37.966Z,3.80
2023-09-23T12:14:04.661Z,3.80
2023-09-23T12:16:31.230Z,3.50
2023-09-23T12:18:57.850Z,3.30
2023-09-23T12:21:24.304Z,3.78
2023-09-23T12:23:52.329Z,3.40
2023-09-23T12:26:19.979Z,3.15
2023-09-23T12:28:46.743Z,3.50
2023-09-23T12:31:14.208Z,3.03
2023-09-23T12:33:42.082Z,3.42
2023-09-23T12:36:08.714Z,3.22
2023-09-23T12:38:35.354Z,2.65
2023-09-23T12:41:02.052Z,2.90
2023-09-23T12:43:29.305Z,2.70
2023-09-23T12:45:55.839Z,2.60
2023-09-23T12:48:22.516Z,2.30
2023-09-23T12:50:49.442Z,2.10
2023-09-23T12:53:16.057Z,2.30
2023-09-23T12:55:42.554Z,2.50
2023-09-23T12:58:09.316Z,2.30
2023-09-23T13:00:35.875Z,2.03
2023-09-23T13:03:02.585Z,2.05
2023-09-23T13:05:29.505Z,1.92
2023-09-23T13:07:56.078Z,1.90
2023-09-23T13:10:22.609Z,2.08
2023-09-23T13:12:50.486Z,1.40
2023-09-23T13:15:17.318Z,1.60
2023-09-23T13:17:45.027Z,1.50
2023-09-23T13:20:12.034Z,1.60
2023-09-23T13:22:38.573Z,1.40
2023-09-23T13:25:06.239Z,1.50
2023-09-23T13:27:34.259Z,2.05
2023-09-23T13:30:00.827Z,2.30
2023-09-23T13:32:27.410Z,1.70
2023-09-23T13:34:54.072Z,1.45
2023-09-23T13:37:20.583Z,1.63
2023-09-23T13:39:47.165Z,1.90
2023-09-23T13:42:14.222Z,1.70
2023-09-23T13:44:41.529Z,1.75
2023-09-23T13:47:08.147Z,1.33
2023-09-23T13:49:34.859Z,1.30
2023-09-23T13:52:01.825Z,1.90
2023-09-23T13:54:28.302Z,2.05
2023-09-23T13:56:54.818Z,2.10
2023-09-23T13:59:21.337Z,2.03
2023-09-23T14:01:47.924Z,1.90
2023-09-23T14:04:15.065Z,1.40
2023-09-23T14:06:41.907Z,1.73
2023-09-23T14:09:10.110Z,1.65
2023-09-23T14:11:37.304Z,1.77
2023-09-23T14:14:04.721Z,1.88
2023-09-23T14:16:31.919Z,1.70
2023-09-23T14:18:58.530Z,2.10
2023-09-23T14:21:25.880Z,1.88
2023-09-23T14:23:52.501Z,1.95
2023-09-23T14:26:19.032Z,1.63
2023-09-23T14:28:47.289Z,1.65
2023-09-23T14:31:14.152Z,1.65
2023-09-23T14:33:42.502Z,1.48
2023-09-23T14:36:09.026Z,2.00
2023-09-23T14:38:35.581Z,2.03
2023-09-23T14:41:02.332Z,1.90
2023-09-23T14:43:28.902Z,1.90
2023-09-23T14:45:56.137Z,2.03
2023-09-23T14:48:22.818Z,1.90
2023-09-23T14:50:50.268Z,1.67
2023-09-23T14:53:17.375Z,1.80
2023-09-23T14:55:44.527Z,2.40
2023-09-23T14:58:11.727Z,3.70
2023-09-23T15:00:38.547Z,2.03
2023-09-23T15:03:06.025Z,1.90
2023-09-23T15:05:32.727Z,2.10
2023-09-23T15:07:59.436Z,1.67
2023-09-23T15:10:25.909Z,2.17
2023-09-23T15:12:54.688Z,4.40
2023-09-23T15:15:21.444Z,2.20
2023-09-23T15:17:48.464Z,2.65
2023-09-23T15:20:15.030Z,1.90
2023-09-23T15:22:42.132Z,1.50
2023-09-23T15:25:09.817Z,1.27
2023-09-23T15:27:36.866Z,1.40
2023-09-23T15:30:08.393Z,1.92
2023-09-23T15:32:38.341Z,1.83
2023-09-23T15:35:06.444Z,1.50
2023-09-23T15:37:33.814Z,1.13
2023-09-23T15:40:00.460Z,1.30
2023-09-23T15:42:27.051Z,1.30
2023-09-23T15:44:54.211Z,1.20
2023-09-23T15:47:21.714Z,1.45
2023-09-23T15:49:48.945Z,1.45
2023-09-23T15:52:17.049Z,1.27
2023-09-23T15:54:43.706Z,1.40
2023-09-23T15:57:11.983Z,1.83
2023-09-23T15:59:38.981Z,1.90
2023-09-23T16:02:05.654Z,1.00
2023-09-23T16:04:33.127Z,1.10
2023-09-23T16:06:59.886Z,1.33
2023-09-23T16:09:26.567Z,1.05
2023-09-23T16:11:53.795Z,1.02
2023-09-23T16:14:20.449Z,1.23
2023-09-23T16:16:47.558Z,1.20
2023-09-23T16:19:14.200Z,1.20
2023-09-23T16:21:40.688Z,1.00
2023-09-23T16:24:07.356Z,0.90
2023-09-23T16:26:35.241Z,1.10
2023-09-23T16:29:02.318Z,1.00
2023-09-23T16:31:28.883Z,1.10
2023-09-23T16:33:56.937Z,0.80
2023-09-23T16:36:24.634Z,0.95
2023-09-23T16:38:51.980Z,1.00
2023-09-23T16:41:18.629Z,1.08
2023-09-23T16:43:46.270Z,0.82
2023-09-23T16:46:12.897Z,1.27
2023-09-23T16:48:39.474Z,0.98
2023-09-23T16:51:05.985Z,0.95
2023-09-23T16:53:33.500Z,0.90
2023-09-23T16:56:01.093Z,1.00
2023-09-23T16:58:27.871Z,0.95
2023-09-23T17:00:54.465Z,1.00
2023-09-23T17:03:22.534Z,0.85
2023-09-23T17:05:53.389Z,1.02
2023-09-23T17:08:20.981Z,0.93
2023-09-23T17:10:47.861Z,1.02
2023-09-23T17:13:15.791Z,1.10
2023-09-23T17:15:42.460Z,1.00
2023-09-23T17:18:09.167Z,1.08
2023-09-23T17:20:35.893Z,1.00
2023-09-23T17:23:02.645Z,0.95
2023-09-23T17:25:29.789Z,1.10
2023-09-23T17:27:56.319Z,1.05
2023-09-23T17:30:23.146Z,0.98
2023-09-23T17:32:49.849Z,1.05
2023-09-23T17:35:17.750Z,1.02
2023-09-23T17:37:44.270Z,1.23
2023-09-23T17:40:11.026Z,1.20
2023-09-23T17:42:37.926Z,1.30
2023-09-23T17:45:04.883Z,1.17
2023-09-23T17:47:31.778Z,1.10
2023-09-23T17:49:58.437Z,1.10
2023-09-23T17:52:25.039Z,1.10
2023-09-23T17:54:51.681Z,0.98
2023-09-23T17:57:18.285Z,1.05
2023-09-23T17:59:44.875Z,1.50
2023-09-23T18:02:11.532Z,1.65
2023-09-23T18:04:38.278Z,1.42
2023-09-23T18:07:05.664Z,1.13
2023-09-23T18:09:32.203Z,1.20
2023-09-23T18:11:58.700Z,1.27
2023-09-23T18:14:25.310Z,1.50
2023-09-23T18:16:51.834Z,1.58
2023-09-23T18:19:18.931Z,1.40
2023-09-23T18:21:46.155Z,1.35
2023-09-23T18:24:12.949Z,1.30
2023-09-23T18:26:40.334Z,1.40
2023-09-23T18:29:06.870Z,1.27
2023-09-23T18:31:33.814Z,1.23
2023-09-23T18:34:00.540Z,1.73
2023-09-23T18:36:27.215Z,1.50
2023-09-23T18:38:53.730Z,1.63
2023-09-23T18:41:20.292Z,1.58
2023-09-23T18:43:48.249Z,1.40
2023-09-23T18:46:14.986Z,1.70
2023-09-23T18:48:41.587Z,1.92
2023-09-23T18:51:08.182Z,1.42
2023-09-23T18:53:36.725Z,1.88
2023-09-23T18:56:04.691Z,1.92
2023-09-23T18:58:31.230Z,1.90
2023-09-23T19:00:57.882Z,2.20
2023-09-23T19:03:24.938Z,1.88
2023-09-23T19:05:51.669Z,1.90
2023-09-23T19:08:18.338Z,2.17
2023-09-23T19:10:45.340Z,2.38
2023-09-23T19:13:11.869Z,1.85
2023-09-23T19:15:38.455Z,1.90
2023-09-23T19:18:05.418Z,2.38
2023-09-23T19:20:32.484Z,2.25
2023-09-23T19:22:59.785Z,2.15
2023-09-23T19:25:26.422Z,2.25
2023-09-23T19:27:52.888Z,2.22
2023-09-23T19:30:19.558Z,2.25
2023-09-23T19:32:46.899Z,2.90
2023-09-23T19:35:14.106Z,2.33
2023-09-23T19:37:40.733Z,2.40
2023-09-23T19:40:08.100Z,2.33
2023-09-23T19:42:35.627Z,2.45
2023-09-23T19:45:05.059Z,3.20
2023-09-23T19:47:32.603Z,3.03
2023-09-23T19:50:00.801Z,2.38
2023-09-23T19:52:30.329Z,2.95
2023-09-23T19:54:57.257Z,2.88
2023-09-23T19:57:23.760Z,2.65
2023-09-23T19:59:50.369Z,3.20
2023-09-23T20:02:16.999Z,3.15
2023-09-23T20:04:46.262Z,3.13
2023-09-23T20:07:17.261Z,2.72
2023-09-23T20:09:43.821Z,2.83
2023-09-23T20:12:11.931Z,3.28
2023-09-23T20:14:38.954Z,3.80
2023-09-23T20:17:07.916Z,3.00
2023-09-23T20:19:34.835Z,3.13
2023-09-23T20:22:01.980Z,3.13
2023-09-23T20:24:28.495Z,3.20
2023-09-23T20:26:55.212Z,3.33
2023-09-23T20:29:22.940Z,3.67
2023-09-23T20:31:49.903Z,3.40
2023-09-23T20:34:17.979Z,3.20
2023-09-23T20:36:45.574Z,2.92
2023-09-23T20:39:12.391Z,3.20
2023-09-23T20:41:38.978Z,3.90
2023-09-23T20:44:05.858Z,3.33
2023-09-23T20:46:32.978Z,3.53
2023-09-23T20:49:00.353Z,4.78
2023-09-23T20:51:27.093Z,3.33
2023-09-23T20:53:53.719Z,3.55
2023-09-23T20:56:20.355Z,3.63
2023-09-23T20:58:46.858Z,3.75
2023-09-23T21:01:13.394Z,3.50
2023-09-23T21:03:40.080Z,3.55
2023-09-23T21:06:08.063Z,4.35
2023-09-23T21:08:34.623Z,4.25
2023-09-23T21:11:01.184Z,4.15
2023-09-23T21:13:28.328Z,3.45
2023-09-23T21:16:04.433Z,3.88
2023-09-23T21:18:31.415Z,3.55
2023-09-23T21:20:58.257Z,4.45
2023-09-23T21:23:24.831Z,3.67
2023-09-23T21:25:53.358Z,4.13
2023-09-23T21:28:20.391Z,4.10
2023-09-23T21:30:47.130Z,3.95
2023-09-23T21:33:13.808Z,4.25
2023-09-23T21:35:41.839Z,3.75
2023-09-23T21:38:09.031Z,3.88
2023-09-23T21:40:43.610Z,4.32
2023-09-23T21:43:10.100Z,3.80
2023-09-23T21:45:39.664Z,3.70
2023-09-23T21:48:08.285Z,4.22
2023-09-23T21:50:35.146Z,3.85
2023-09-23T21:53:01.799Z,3.70
2023-09-23T21:55:28.292Z,3.65
2023-09-23T21:57:54.829Z,3.75
2023-09-23T22:00:28.102Z,3.53
2023-09-23T22:02:57.376Z,4.10
2023-09-23T22:05:29.002Z,3.80
2023-09-23T22:07:56.698Z,3.60
2023-09-23T22:10:23.933Z,4.05
2023-09-23T22:12:53.651Z,3.25
2023-09-23T22:15:21.421Z,3.30
2023-09-23T22:17:48.918Z,3.40
2023-09-23T22:20:21.215Z,3.13
2023-09-23T22:22:48.531Z,3.22
2023-09-23T22:25:17.813Z,3.17
2023-09-23T22:27:44.784Z,2.88
2023-09-23T22:30:14.655Z,3.40
2023-09-23T22:35:08.913Z,3.30
2023-09-23T22:37:35.435Z,3.75
2023-09-23T22:40:03.325Z,3.35
2023-09-23T22:42:30.181Z,3.47
2023-09-23T22:44:56.850Z,3.03
2023-09-23T22:47:23.819Z,3.40
2023-09-23T22:49:50.473Z,2.88
2023-09-23T22:52:16.985Z,3.85
2023-09-23T22:54:43.457Z,2.80
2023-09-23T22:57:11.894Z,2.90
2023-09-23T22:59:38.518Z,3.40
2023-09-23T23:02:05.141Z,3.38
2023-09-23T23:04:31.757Z,3.72
2023-09-23T23:06:58.514Z,3.72
2023-09-23T23:09:25.485Z,3.53
2023-09-23T23:11:52.045Z,3.63
2023-09-23T23:14:18.790Z,3.22
2023-09-23T23:16:45.425Z,3.17
2023-09-23T23:19:12.582Z,3.53
2023-09-23T23:21:39.199Z,3.83
2023-09-23T23:24:06.018Z,3.53
2023-09-23T23:26:32.596Z,4.28
2023-09-23T23:28:59.102Z,3.22
2023-09-23T23:31:25.621Z,4.15
2023-09-23T23:33:52.082Z,3.30
2023-09-23T23:36:18.957Z,3.63
2023-09-23T23:38:45.611Z,4.53
2023-09-23T23:41:12.086Z,4.57
2023-09-23T23:43:38.541Z,4.15
2023-09-23T23:46:05.226Z,4.97
2023-09-23T23:48:32.725Z,4.72
2023-09-23T23:51:06.470Z,4.57
2023-09-23T23:53:34.274Z,4.97
2023-09-23T23:56:01.889Z,4.45
2023-09-23T23:58:28.465Z,4.88
